sensor_id;sensor_type;location;lat;lon;timestamp;pressure;altitude;pressure_sealevel;temperature;humidity
77281;BME280;66339;47.262;17.144;2024-03-29T00:01:50;99389.88;;;19.97;50.61
77281;BME280;66339;47.262;17.144;2024-03-29T00:04:22;99396.81;;;19.98;50.60
77281;BME280;66339;47.262;17.144;2024-03-29T00:07:03;99401.88;;;19.99;50.59
77281;BME280;66339;47.262;17.144;2024-03-29T00:09:44;99423.34;;;19.99;50.58
77281;BME280;66339;47.262;17.144;2024-03-29T00:12:20;99419.41;;;19.97;50.58
77281;BME280;66339;47.262;17.144;2024-03-29T00:15:22;99423.94;;;19.96;50.62
77281;BME280;66339;47.262;17.144;2024-03-29T00:17:57;99435.31;;;19.93;50.69
77281;BME280;66339;47.262;17.144;2024-03-29T00:20:28;99439.56;;;19.94;50.67
77281;BME280;66339;47.262;17.144;2024-03-29T00:23:04;99440.06;;;19.96;50.63
77281;BME280;66339;47.262;17.144;2024-03-29T00:25:36;99450.19;;;19.99;50.56
77281;BME280;66339;47.262;17.144;2024-03-29T00:28:02;99464.91;;;20.02;50.50
77281;BME280;66339;47.262;17.144;2024-03-29T00:30:34;99462.44;;;20.05;50.34
77281;BME280;66339;47.262;17.144;2024-03-29T00:33:02;99451.69;;;20.05;50.29
77281;BME280;66339;47.262;17.144;2024-03-29T00:35:40;99450.59;;;20.06;50.23
77281;BME280;66339;47.262;17.144;2024-03-29T00:40:59;99454.38;;;20.05;50.22
77281;BME280;66339;47.262;17.144;2024-03-29T00:43:27;99456.28;;;20.05;50.21
77281;BME280;66339;47.262;17.144;2024-03-29T00:45:57;99457.53;;;20.07;50.18
77281;BME280;66339;47.262;17.144;2024-03-29T00:48:27;99466.69;;;20.06;50.13
77281;BME280;66339;47.262;17.144;2024-03-29T00:50:52;99470.50;;;20.05;50.19
77281;BME280;66339;47.262;17.144;2024-03-29T00:53:19;99475.34;;;20.03;50.20
77281;BME280;66339;47.262;17.144;2024-03-29T00:55:44;99477.25;;;20.03;50.17
77281;BME280;66339;47.262;17.144;2024-03-29T00:58:18;99486.41;;;20.02;50.18
77281;BME280;66339;47.262;17.144;2024-03-29T01:00:45;99487.97;;;20.03;50.11
77281;BME280;66339;47.262;17.144;2024-03-29T01:03:13;99497.13;;;20.02;50.13
77281;BME280;66339;47.262;17.144;2024-03-29T01:05:41;99496.94;;;19.98;50.21
77281;BME280;66339;47.262;17.144;2024-03-29T01:08:08;99502.00;;;20.00;50.14
77281;BME280;66339;47.262;17.144;2024-03-29T01:10:40;99504.97;;;19.98;50.12
77281;BME280;66339;47.262;17.144;2024-03-29T01:13:10;99513.03;;;19.98;50.12
77281;BME280;66339;47.262;17.144;2024-03-29T01:15:42;99518.72;;;19.97;50.11
77281;BME280;66339;47.262;17.144;2024-03-29T01:18:10;99518.19;;;19.95;50.19
77281;BME280;66339;47.262;17.144;2024-03-29T01:20:48;99522.78;;;19.94;50.19
77281;BME280;66339;47.262;17.144;2024-03-29T01:23:17;99523.38;;;19.91;50.24
77281;BME280;66339;47.262;17.144;2024-03-29T01:28:35;99516.41;;;19.90;50.25
77281;BME280;66339;47.262;17.144;2024-03-29T01:31:01;99542.75;;;19.88;50.25
77281;BME280;66339;47.262;17.144;2024-03-29T01:33:34;99544.34;;;19.89;50.23
77281;BME280;66339;47.262;17.144;2024-03-29T01:36:03;99526.63;;;19.88;50.22
77281;BME280;66339;47.262;17.144;2024-03-29T01:38:33;99545.44;;;19.88;50.25
77281;BME280;66339;47.262;17.144;2024-03-29T01:41:06;99542.25;;;19.86;50.24
77281;BME280;66339;47.262;17.144;2024-03-29T01:43:36;99553.00;;;19.86;50.25
77281;BME280;66339;47.262;17.144;2024-03-29T01:46:05;99556.78;;;19.85;50.24
77281;BME280;66339;47.262;17.144;2024-03-29T01:48:31;99554.38;;;19.83;50.30
77281;BME280;66339;47.262;17.144;2024-03-29T01:51:04;99564.31;;;19.83;50.32
77281;BME280;66339;47.262;17.144;2024-03-29T01:53:33;99562.72;;;19.82;50.28
77281;BME280;66339;47.262;17.144;2024-03-29T01:56:04;99566.50;;;19.81;50.28
77281;BME280;66339;47.262;17.144;2024-03-29T01:58:30;99571.88;;;19.81;50.28
77281;BME280;66339;47.262;17.144;2024-03-29T02:00:59;99576.41;;;19.80;50.30
77281;BME280;66339;47.262;17.144;2024-03-29T02:03:28;99581.00;;;19.80;50.28
77281;BME280;66339;47.262;17.144;2024-03-29T02:05:58;99574.03;;;19.79;50.29
77281;BME280;66339;47.262;17.144;2024-03-29T02:08:26;99574.03;;;19.79;50.27
77281;BME280;66339;47.262;17.144;2024-03-29T02:10:53;99588.56;;;19.78;50.33
77281;BME280;66339;47.262;17.144;2024-03-29T02:13:22;99577.81;;;19.78;50.32
77281;BME280;66339;47.262;17.144;2024-03-29T02:15:55;99575.41;;;19.76;50.31
77281;BME280;66339;47.262;17.144;2024-03-29T02:18:25;99573.56;;;19.77;50.28
77281;BME280;66339;47.262;17.144;2024-03-29T02:20:58;99574.63;;;19.76;50.31
77281;BME280;66339;47.262;17.144;2024-03-29T02:23:32;99576.03;;;19.73;50.34
77281;BME280;66339;47.262;17.144;2024-03-29T02:26:07;99582.97;;;19.74;50.26
77281;BME280;66339;47.262;17.144;2024-03-29T02:28:38;99598.28;;;19.74;50.31
77281;BME280;66339;47.262;17.144;2024-03-29T02:31:08;99596.69;;;19.73;50.32
77281;BME280;66339;47.262;17.144;2024-03-29T02:33:37;99602.88;;;19.73;50.28
77281;BME280;66339;47.262;17.144;2024-03-29T02:36:06;99602.03;;;19.73;50.30
77281;BME280;66339;47.262;17.144;2024-03-29T02:38:38;99604.72;;;19.73;50.31
77281;BME280;66339;47.262;17.144;2024-03-29T02:41:04;99598.88;;;19.71;50.33
77281;BME280;66339;47.262;17.144;2024-03-29T02:43:33;99603.44;;;19.70;50.35
77281;BME280;66339;47.262;17.144;2024-03-29T02:46:06;99598.88;;;19.71;50.38
77281;BME280;66339;47.262;17.144;2024-03-29T02:48:37;99598.88;;;19.71;50.41
77281;BME280;66339;47.262;17.144;2024-03-29T02:51:14;99606.34;;;19.74;50.41
77281;BME280;66339;47.262;17.144;2024-03-29T02:53:40;99610.03;;;19.78;50.22
77281;BME280;66339;47.262;17.144;2024-03-29T02:56:09;99604.06;;;19.81;50.16
77281;BME280;66339;47.262;17.144;2024-03-29T02:58:41;99612.31;;;19.84;50.12
77281;BME280;66339;47.262;17.144;2024-03-29T03:01:08;99623.56;;;19.86;49.95
77281;BME280;66339;47.262;17.144;2024-03-29T03:03:37;99628.94;;;19.86;49.91
77281;BME280;66339;47.262;17.144;2024-03-29T03:06:03;99631.31;;;19.88;49.87
77281;BME280;66339;47.262;17.144;2024-03-29T03:08:31;99629.72;;;19.87;49.90
77281;BME280;66339;47.262;17.144;2024-03-29T03:11:03;99638.88;;;19.86;49.93
77281;BME280;66339;47.262;17.144;2024-03-29T03:13:31;99638.06;;;19.85;49.98
77281;BME280;66339;47.262;17.144;2024-03-29T03:18:50;99622.88;;;19.81;50.37
77281;BME280;66339;47.262;17.144;2024-03-29T03:21:19;99627.41;;;19.80;50.36
77281;BME280;66339;47.262;17.144;2024-03-29T03:23:52;99621.56;;;19.78;50.32
77281;BME280;66339;47.262;17.144;2024-03-29T03:26:18;99609.25;;;19.77;50.36
77281;BME280;66339;47.262;17.144;2024-03-29T03:28:53;99605.75;;;19.77;50.28
77281;BME280;66339;47.262;17.144;2024-03-29T03:31:25;99604.66;;;19.78;50.09
77281;BME280;66339;47.262;17.144;2024-03-29T03:33:58;99615.41;;;19.78;50.05
77281;BME280;66339;47.262;17.144;2024-03-29T03:36:31;99620.75;;;19.78;50.01
77281;BME280;66339;47.262;17.144;2024-03-29T03:39:03;99619.19;;;19.77;49.99
77281;BME280;66339;47.262;17.144;2024-03-29T03:41:30;99629.91;;;19.77;49.98
77281;BME280;66339;47.262;17.144;2024-03-29T03:44:01;99611.41;;;19.75;49.97
77281;BME280;66339;47.262;17.144;2024-03-29T03:46:27;99617.06;;;19.74;49.99
77281;BME280;66339;47.262;17.144;2024-03-29T03:48:54;99615.47;;;19.73;50.04
77281;BME280;66339;47.262;17.144;2024-03-29T03:51:26;99621.13;;;19.71;50.06
77281;BME280;66339;47.262;17.144;2024-03-29T03:53:51;99616.56;;;19.72;50.02
77281;BME280;66339;47.262;17.144;2024-03-29T03:56:18;99626.50;;;19.71;50.04
77281;BME280;66339;47.262;17.144;2024-03-29T03:58:44;99624.91;;;19.70;50.03
77281;BME280;66339;47.262;17.144;2024-03-29T04:01:13;99629.47;;;19.70;50.12
77281;BME280;66339;47.262;17.144;2024-03-29T04:03:41;99630.06;;;19.67;50.19
77281;BME280;66339;47.262;17.144;2024-03-29T04:06:10;99626.59;;;19.66;50.19
77281;BME280;66339;47.262;17.144;2024-03-29T04:08:41;99632.75;;;19.67;50.22
77281;BME280;66339;47.262;17.144;2024-03-29T04:11:15;99640.78;;;19.67;50.18
77281;BME280;66339;47.262;17.144;2024-03-29T04:13:45;99653.69;;;19.65;50.15
77281;BME280;66339;47.262;17.144;2024-03-29T04:16:14;99664.41;;;19.65;50.20
77281;BME280;66339;47.262;17.144;2024-03-29T04:18:40;99674.66;;;19.62;50.22
77281;BME280;66339;47.262;17.144;2024-03-29T04:21:10;99674.13;;;19.60;50.19
77281;BME280;66339;47.262;17.144;2024-03-29T04:23:39;99677.62;;;19.61;50.22
77281;BME280;66339;47.262;17.144;2024-03-29T04:26:05;99681.66;;;19.58;50.28
77281;BME280;66339;47.262;17.144;2024-03-29T04:28:34;99687.03;;;19.58;50.23
77281;BME280;66339;47.262;17.144;2024-03-29T04:31:03;99684.84;;;19.60;50.26
77281;BME280;66339;47.262;17.144;2024-03-29T04:33:29;99677.91;;;19.59;50.28
77281;BME280;66339;47.262;17.144;2024-03-29T04:36:00;99671.44;;;19.60;50.23
77281;BME280;66339;47.262;17.144;2024-03-29T04:38:29;99677.91;;;19.59;50.20
77281;BME280;66339;47.262;17.144;2024-03-29T04:41:01;99677.91;;;19.59;50.19
77281;BME280;66339;47.262;17.144;2024-03-29T04:43:33;99683.25;;;19.59;50.19
77281;BME280;66339;47.262;17.144;2024-03-29T04:46:15;99692.41;;;19.58;50.20
77281;BME280;66339;47.262;17.144;2024-03-29T04:48:43;99702.63;;;19.56;50.18
77281;BME280;66339;47.262;17.144;2024-03-29T05:02:44;99702.81;;;19.60;50.30
77281;BME280;66339;47.262;17.144;2024-03-29T05:05:14;99707.94;;;19.61;50.24
77281;BME280;66339;47.262;17.144;2024-03-29T05:07:46;99701.97;;;19.65;50.11
77281;BME280;66339;47.262;17.144;2024-03-29T05:10:13;99707.88;;;19.67;50.06
77281;BME280;66339;47.262;17.144;2024-03-29T05:15:39;99712.72;;;19.65;50.03
77281;BME280;66339;47.262;17.144;2024-03-29T05:18:05;99724.53;;;19.64;50.05
77281;BME280;66339;47.262;17.144;2024-03-29T05:20:30;99725.63;;;19.62;50.07
77281;BME280;66339;47.262;17.144;2024-03-29T05:22:58;99728.31;;;19.62;50.04
77281;BME280;66339;47.262;17.144;2024-03-29T05:25:27;99730.75;;;19.59;50.10
77281;BME280;66339;47.262;17.144;2024-03-29T05:27:53;99727.75;;;19.60;50.07
77281;BME280;66339;47.262;17.144;2024-03-29T05:33:09;99739.59;;;19.59;50.07
77281;BME280;66339;47.262;17.144;2024-03-29T05:35:44;99732.13;;;19.56;50.19
77281;BME280;66339;47.262;17.144;2024-03-29T05:38:13;99730.44;;;19.60;50.12
77281;BME280;66339;47.262;17.144;2024-03-29T05:40:43;99742.00;;;19.61;49.98
77281;BME280;66339;47.262;17.144;2024-03-29T05:43:13;99743.88;;;19.60;49.99
77281;BME280;66339;47.262;17.144;2024-03-29T05:45:39;99735.31;;;19.58;50.01
77281;BME280;66339;47.262;17.144;2024-03-29T05:48:05;99729.97;;;19.58;50.01
77281;BME280;66339;47.262;17.144;2024-03-29T05:50:37;99732.13;;;19.56;50.03
77281;BME280;66339;47.262;17.144;2024-03-29T05:53:05;99725.16;;;19.55;50.04
77281;BME280;66339;47.262;17.144;2024-03-29T05:55:35;99735.91;;;19.55;50.07
77281;BME280;66339;47.262;17.144;2024-03-29T05:58:10;99724.38;;;19.55;50.04
77281;BME280;66339;47.262;17.144;2024-03-29T06:00:39;99728.94;;;19.54;50.04
77281;BME280;66339;47.262;17.144;2024-03-29T06:03:09;99723.56;;;19.54;50.01
77281;BME280;66339;47.262;17.144;2024-03-29T06:05:41;99723.56;;;19.54;50.02
77281;BME280;66339;47.262;17.144;2024-03-29T06:08:07;99731.09;;;19.52;50.01
77281;BME280;66339;47.262;17.144;2024-03-29T06:10:36;99728.41;;;19.52;50.07
77281;BME280;66339;47.262;17.144;2024-03-29T06:13:05;99720.38;;;19.52;50.03
77281;BME280;66339;47.262;17.144;2024-03-29T06:15:39;99716.63;;;19.53;50.06
77281;BME280;66339;47.262;17.144;2024-03-29T06:18:07;99718.22;;;19.54;49.95
77281;BME280;66339;47.262;17.144;2024-03-29T06:20:38;99720.91;;;19.54;49.88
77281;BME280;66339;47.262;17.144;2024-03-29T06:23:04;99716.63;;;19.53;49.85
77281;BME280;66339;47.262;17.144;2024-03-29T06:25:42;99702.13;;;19.54;49.93
77281;BME280;66339;47.262;17.144;2024-03-29T06:36:48;99695.53;;;19.66;50.04
77281;BME280;66339;47.262;17.144;2024-03-29T06:45:00;99717.72;;;19.71;49.78
77281;BME280;66339;47.262;17.144;2024-03-29T06:50:15;99715.84;;;19.72;49.72
77281;BME280;66339;47.262;17.144;2024-03-29T06:58:32;99720.72;;;19.70;49.67
77281;BME280;66339;47.262;17.144;2024-03-29T07:09:21;99712.72;;;19.65;49.78
77281;BME280;66339;47.262;17.144;2024-03-29T07:17:56;99714.91;;;19.62;49.54
77281;BME280;66339;47.262;17.144;2024-03-29T07:31:24;99718.66;;;19.80;49.13
77281;BME280;66339;47.262;17.144;2024-03-29T07:39:51;99710.81;;;19.84;49.33
77281;BME280;66339;47.262;17.144;2024-03-29T07:42:19;99702.75;;;19.84;49.48
77281;BME280;66339;47.262;17.144;2024-03-29T07:44:45;99707.84;;;19.85;49.59
77281;BME280;66339;47.262;17.144;2024-03-29T07:47:11;99698.69;;;19.86;49.72
77281;BME280;66339;47.262;17.144;2024-03-29T07:49:40;99702.19;;;19.87;49.70
77281;BME280;66339;47.262;17.144;2024-03-29T07:52:06;99708.84;;;19.90;49.97
77281;BME280;66339;47.262;17.144;2024-03-29T07:54:51;99703.50;;;19.90;50.79
77281;BME280;66339;47.262;17.144;2024-03-29T07:57:16;99701.28;;;19.92;50.68
77281;BME280;66339;47.262;17.144;2024-03-29T07:59:46;99701.81;;;19.94;50.86
77281;BME280;66339;47.262;17.144;2024-03-29T08:02:13;99709.56;;;19.95;50.85
77281;BME280;66339;47.262;17.144;2024-03-29T08:04:38;99704.72;;;19.97;51.15
77281;BME280;66339;47.262;17.144;2024-03-29T08:07:05;99700.94;;;19.98;51.86
77281;BME280;66339;47.262;17.144;2024-03-29T08:09:34;99700.94;;;19.98;51.71
77281;BME280;66339;47.262;17.144;2024-03-29T08:12:07;99697.16;;;19.99;52.12
77281;BME280;66339;47.262;17.144;2024-03-29T08:14:33;99694.19;;;20.01;52.33
77281;BME280;66339;47.262;17.144;2024-03-29T08:17:08;99687.41;;;20.03;52.53
77281;BME280;66339;47.262;17.144;2024-03-29T08:19:34;99684.72;;;20.03;52.84
77281;BME280;66339;47.262;17.144;2024-03-29T08:22:01;99683.66;;;20.04;52.88
77281;BME280;66339;47.262;17.144;2024-03-29T08:24:47;99677.69;;;20.07;52.74
77281;BME280;66339;47.262;17.144;2024-03-29T08:27:15;99690.53;;;20.10;52.50
77281;BME280;66339;47.262;17.144;2024-03-29T08:35:18;99667.78;;;20.22;52.00
77281;BME280;66339;47.262;17.144;2024-03-29T08:37:48;99675.25;;;20.25;52.05
77281;BME280;66339;47.262;17.144;2024-03-29T08:40:16;99673.03;;;20.27;52.16
77281;BME280;66339;47.262;17.144;2024-03-29T08:42:46;99672.47;;;20.30;52.38
77281;BME280;66339;47.262;17.144;2024-03-29T08:45:12;99679.13;;;20.32;52.19
77281;BME280;66339;47.262;17.144;2024-03-29T08:47:42;99666.97;;;20.35;52.12
77281;BME280;66339;47.262;17.144;2024-03-29T08:50:12;99667.78;;;20.35;52.25
77281;BME280;66339;47.262;17.144;2024-03-29T08:52:39;99671.78;;;20.38;52.10
77281;BME280;66339;47.262;17.144;2024-03-29T08:55:08;99676.56;;;20.41;52.07
77281;BME280;66339;47.262;17.144;2024-03-29T08:57:37;99674.34;;;20.43;52.16
77281;BME280;66339;47.262;17.144;2024-03-29T09:00:08;99660.66;;;20.45;52.39
77281;BME280;66339;47.262;17.144;2024-03-29T09:02:38;99651.47;;;20.46;52.28
77281;BME280;66339;47.262;17.144;2024-03-29T09:08:07;99649.22;;;20.53;52.35
77281;BME280;66339;47.262;17.144;2024-03-29T09:10:36;99645.75;;;20.52;52.55
77281;BME280;66339;47.262;17.144;2024-03-29T09:13:03;99651.13;;;20.52;52.58
77281;BME280;66339;47.262;17.144;2024-03-29T09:15:33;99650.53;;;20.55;52.41
77281;BME280;66339;47.262;17.144;2024-03-29T09:21:00;99623.03;;;20.58;52.39
77281;BME280;66339;47.262;17.144;2024-03-29T09:29:09;99633.19;;;20.62;52.36
77281;BME280;66339;47.262;17.144;2024-03-29T09:31:40;99625.94;;;20.62;52.39
77281;BME280;66339;47.262;17.144;2024-03-29T09:34:10;99620.28;;;20.64;52.32
77281;BME280;66339;47.262;17.144;2024-03-29T09:36:43;99623.44;;;20.66;52.24
77281;BME280;66339;47.262;17.144;2024-03-29T09:39:09;99615.09;;;20.67;52.18
77281;BME280;66339;47.262;17.144;2024-03-29T09:41:39;99622.84;;;20.69;52.22
77281;BME280;66339;47.262;17.144;2024-03-29T09:44:09;99616.88;;;20.72;52.24
77281;BME280;66339;47.262;17.144;2024-03-29T09:46:38;99607.72;;;20.73;52.08
77281;BME280;66339;47.262;17.144;2024-03-29T09:49:06;99607.13;;;20.76;51.88
77281;BME280;66339;47.262;17.144;2024-03-29T09:51:32;99597.97;;;20.77;51.99
77281;BME280;66339;47.262;17.144;2024-03-29T09:54:06;99610.59;;;20.76;52.20
77281;BME280;66339;47.262;17.144;2024-03-29T09:56:37;99601.16;;;20.79;52.21
77281;BME280;66339;47.262;17.144;2024-03-29T09:59:03;99610.78;;;20.80;52.29
77281;BME280;66339;47.262;17.144;2024-03-29T10:01:29;99594.56;;;20.85;52.42
77281;BME280;66339;47.262;17.144;2024-03-29T10:03:55;99591.56;;;20.87;52.26
77281;BME280;66339;47.262;17.144;2024-03-29T10:06:25;99582.41;;;20.88;51.78
77281;BME280;66339;47.262;17.144;2024-03-29T10:08:51;99577.81;;;20.88;51.96
77281;BME280;66339;47.262;17.144;2024-03-29T10:11:17;99567.06;;;20.88;51.96
77281;BME280;66339;47.262;17.144;2024-03-29T10:13:48;99562.19;;;20.90;52.07
77281;BME280;66339;47.262;17.144;2024-03-29T10:16:14;99561.09;;;20.91;51.74
77281;BME280;66339;47.262;17.144;2024-03-29T10:18:40;99558.41;;;20.91;51.78
77281;BME280;66339;47.262;17.144;2024-03-29T10:21:07;99549.25;;;20.92;52.03
77281;BME280;66339;47.262;17.144;2024-03-29T10:23:34;99556.50;;;20.92;51.79
77281;BME280;66339;47.262;17.144;2024-03-29T10:26:03;99548.44;;;20.92;51.71
77281;BME280;66339;47.262;17.144;2024-03-29T10:28:35;99544.19;;;20.91;51.74
77281;BME280;66339;47.262;17.144;2024-03-29T10:31:02;99544.97;;;20.91;51.90
77281;BME280;66339;47.262;17.144;2024-03-29T10:33:28;99556.50;;;20.92;51.77
77281;BME280;66339;47.262;17.144;2024-03-29T10:35:55;99558.87;;;20.93;51.72
77281;BME280;66339;47.262;17.144;2024-03-29T10:38:21;99537.38;;;20.93;51.62
77281;BME280;66339;47.262;17.144;2024-03-29T10:40:52;99533.59;;;20.94;51.49
77281;BME280;66339;47.262;17.144;2024-03-29T10:43:17;99542.75;;;20.93;51.33
77281;BME280;66339;47.262;17.144;2024-03-29T10:45:49;99534.69;;;20.93;51.24
77281;BME280;66339;47.262;17.144;2024-03-29T10:48:15;99515.88;;;20.93;50.84
77281;BME280;66339;47.262;17.144;2024-03-29T10:50:41;99524.72;;;20.94;50.91
77281;BME280;66339;47.262;17.144;2024-03-29T10:53:10;99521.25;;;20.93;51.17
77281;BME280;66339;47.262;17.144;2024-03-29T10:55:41;99533.12;;;20.92;51.21
77281;BME280;66339;47.262;17.144;2024-03-29T10:58:08;99533.91;;;20.93;51.16
77281;BME280;66339;47.262;17.144;2024-03-29T11:00:37;99528.22;;;20.94;50.73
77281;BME280;66339;47.262;17.144;2024-03-29T11:05:36;99509.41;;;20.94;50.31
77281;BME280;66339;47.262;17.144;2024-03-29T11:08:04;99509.41;;;20.94;50.12
77281;BME280;66339;47.262;17.144;2024-03-29T11:10:41;99514.78;;;20.94;50.18
77281;BME280;66339;47.262;17.144;2024-03-29T11:15:51;99497.56;;;20.95;50.04
77281;BME280;66339;47.262;17.144;2024-03-29T11:18:24;99503.72;;;20.96;50.15
77281;BME280;66339;47.262;17.144;2024-03-29T11:20:50;99504.53;;;20.96;50.10
77281;BME280;66339;47.262;17.144;2024-03-29T11:23:17;99504.53;;;20.96;49.97
77281;BME280;66339;47.262;17.144;2024-03-29T11:25:44;99496.47;;;20.96;49.92
77281;BME280;66339;47.262;17.144;2024-03-29T11:28:13;99500.72;;;20.97;49.90
77281;BME280;66339;47.262;17.144;2024-03-29T11:30:42;99496.94;;;20.98;49.83
77281;BME280;66339;47.262;17.144;2024-03-29T11:35:54;99493.62;;;21.01;49.83
77281;BME280;66339;47.262;17.144;2024-03-29T11:38:20;99485.56;;;21.01;49.94
77281;BME280;66339;47.262;17.144;2024-03-29T11:43:42;99478.81;;;21.04;50.14
77281;BME280;66339;47.262;17.144;2024-03-29T11:46:11;99481.16;;;21.05;50.16
77281;BME280;66339;47.262;17.144;2024-03-29T11:48:37;99485.47;;;21.06;50.15
77281;BME280;66339;47.262;17.144;2024-03-29T11:51:03;99483.56;;;21.07;50.15
77281;BME280;66339;47.262;17.144;2024-03-29T11:53:30;99480.09;;;21.06;50.16
77281;BME280;66339;47.262;17.144;2024-03-29T11:55:59;99478.19;;;21.07;50.15
77281;BME280;66339;47.262;17.144;2024-03-29T11:58:26;99473.59;;;21.07;50.15
77281;BME280;66339;47.262;17.144;2024-03-29T12:00:52;99475.19;;;21.08;50.14
77281;BME280;66339;47.262;17.144;2024-03-29T12:03:22;99475.19;;;21.08;50.23
77281;BME280;66339;47.262;17.144;2024-03-29T12:05:48;99464.44;;;21.08;50.36
77281;BME280;66339;47.262;17.144;2024-03-29T12:08:15;99468.22;;;21.07;50.49
77281;BME280;66339;47.262;17.144;2024-03-29T12:10:41;99471.38;;;21.09;50.55
77281;BME280;66339;47.262;17.144;2024-03-29T12:13:07;99471.72;;;21.08;50.59
77281;BME280;66339;47.262;17.144;2024-03-29T12:15:35;99464.44;;;21.08;50.53
77281;BME280;66339;47.262;17.144;2024-03-29T12:18:02;99444.50;;;21.09;50.46
77281;BME280;66339;47.262;17.144;2024-03-29T12:20:29;99459.84;;;21.09;50.45
77281;BME280;66339;47.262;17.144;2024-03-29T12:22:59;99459.56;;;21.11;50.44
77281;BME280;66339;47.262;17.144;2024-03-29T12:25:25;99456.06;;;21.10;50.36
77281;BME280;66339;47.262;17.144;2024-03-29T12:27:52;99451.50;;;21.11;50.32
77281;BME280;66339;47.262;17.144;2024-03-29T12:30:18;99454.97;;;21.11;50.37
77281;BME280;66339;47.262;17.144;2024-03-29T12:32:45;99456.88;;;21.11;50.48
77281;BME280;66339;47.262;17.144;2024-03-29T12:35:11;99458.44;;;21.12;50.56
77281;BME280;66339;47.262;17.144;2024-03-29T12:37:48;99451.16;;;21.12;50.59
77281;BME280;66339;47.262;17.144;2024-03-29T12:40:15;99444.41;;;21.15;50.66
77281;BME280;66339;47.262;17.144;2024-03-29T12:42:41;99434.72;;;21.14;50.75
77281;BME280;66339;47.262;17.144;2024-03-29T12:45:12;99441.72;;;21.15;50.68
77281;BME280;66339;47.262;17.144;2024-03-29T12:47:37;99431.75;;;21.15;50.64
77281;BME280;66339;47.262;17.144;2024-03-29T12:50:12;99437.91;;;21.16;50.62
77281;BME280;66339;47.262;17.144;2024-03-29T12:52:43;99433.31;;;21.16;50.56
77281;BME280;66339;47.262;17.144;2024-03-29T12:55:13;99432.53;;;21.16;50.51
77281;BME280;66339;47.262;17.144;2024-03-29T12:57:39;99439.50;;;21.17;50.44
77281;BME280;66339;47.262;17.144;2024-03-29T13:00:12;99445.97;;;21.16;50.43
77281;BME280;66339;47.262;17.144;2024-03-29T13:02:38;99449.44;;;21.16;50.39
77281;BME280;66339;47.262;17.144;2024-03-29T13:05:08;99458.63;;;21.15;50.32
77281;BME280;66339;47.262;17.144;2024-03-29T13:07:40;99467.50;;;21.16;50.38
77281;BME280;66339;47.262;17.144;2024-03-29T13:10:07;99461.31;;;21.15;50.26
77281;BME280;66339;47.262;17.144;2024-03-29T13:12:36;99472.06;;;21.15;50.26
77281;BME280;66339;47.262;17.144;2024-03-29T13:15:14;99469.38;;;21.15;50.21
77281;BME280;66339;47.262;17.144;2024-03-29T13:17:40;99480.16;;;21.15;50.16
77281;BME280;66339;47.262;17.144;2024-03-29T13:20:07;99479.34;;;21.15;50.27
77281;BME280;66339;47.262;17.144;2024-03-29T13:22:33;99483.63;;;21.16;50.21
77281;BME280;66339;47.262;17.144;2024-03-29T13:25:01;99482.50;;;21.17;50.24
77281;BME280;66339;47.262;17.144;2024-03-29T13:27:28;99479.53;;;21.18;50.28
77281;BME280;66339;47.262;17.144;2024-03-29T13:30:00;99471.75;;;21.17;50.28
77281;BME280;66339;47.262;17.144;2024-03-29T13:32:26;99488.69;;;21.17;50.20
77281;BME280;66339;47.262;17.144;2024-03-29T13:34:52;99479.81;;;21.17;50.28
77281;BME280;66339;47.262;17.144;2024-03-29T13:37:22;99481.41;;;21.18;50.35
77281;BME280;66339;47.262;17.144;2024-03-29T13:39:51;99485.72;;;21.19;50.04
77281;BME280;66339;47.262;17.144;2024-03-29T13:42:19;99483.81;;;21.19;49.63
77281;BME280;66339;47.262;17.144;2024-03-29T13:44:49;99485.06;;;21.22;49.28
77281;BME280;66339;47.262;17.144;2024-03-29T13:47:15;99506.28;;;21.23;49.38
77281;BME280;66339;47.262;17.144;2024-03-29T13:49:44;99491.41;;;21.26;49.50
77281;BME280;66339;47.262;17.144;2024-03-29T13:52:14;99483.84;;;21.28;49.44
77281;BME280;66339;47.262;17.144;2024-03-29T13:54:43;99488.13;;;21.29;49.48
77281;BME280;66339;47.262;17.144;2024-03-29T13:57:09;99488.13;;;21.29;49.46
77281;BME280;66339;47.262;17.144;2024-03-29T13:59:36;99470.91;;;21.30;49.48
77281;BME280;66339;47.262;17.144;2024-03-29T14:02:03;99475.47;;;21.29;49.50
77281;BME280;66339;47.262;17.144;2024-03-29T14:04:32;99481.66;;;21.30;49.45
77281;BME280;66339;47.262;17.144;2024-03-29T14:07:00;99485.44;;;21.29;49.45
77281;BME280;66339;47.262;17.144;2024-03-29T14:09:29;99480.06;;;21.29;49.49
77281;BME280;66339;47.262;17.144;2024-03-29T14:11:55;99481.16;;;21.28;49.38
77281;BME280;66339;47.262;17.144;2024-03-29T14:14:30;99483.06;;;21.27;49.42
77281;BME280;66339;47.262;17.144;2024-03-29T14:16:57;99474.50;;;21.25;49.20
77281;BME280;66339;47.262;17.144;2024-03-29T14:19:23;99468.31;;;21.25;48.72
77281;BME280;66339;47.262;17.144;2024-03-29T14:21:49;99463.25;;;21.23;48.51
77281;BME280;66339;47.262;17.144;2024-03-29T14:24:15;99460.87;;;21.22;48.67
77281;BME280;66339;47.262;17.144;2024-03-29T14:26:44;99464.66;;;21.21;48.74
77281;BME280;66339;47.262;17.144;2024-03-29T14:29:13;99463.09;;;21.20;48.68
77281;BME280;66339;47.262;17.144;2024-03-29T14:31:40;99457.19;;;21.18;48.75
77281;BME280;66339;47.262;17.144;2024-03-29T14:34:11;99452.94;;;21.17;48.75
77281;BME280;66339;47.262;17.144;2024-03-29T14:36:37;99448.66;;;21.16;49.14
77281;BME280;66339;47.262;17.144;2024-03-29T14:39:07;99452.47;;;21.15;49.27
77281;BME280;66339;47.262;17.144;2024-03-29T14:41:34;99457.53;;;21.16;49.44
77281;BME280;66339;47.262;17.144;2024-03-29T14:44:00;99456.41;;;21.17;49.50
77281;BME280;66339;47.262;17.144;2024-03-29T14:46:26;99448.06;;;21.19;49.75
77281;BME280;66339;47.262;17.144;2024-03-29T14:48:54;99447.41;;;21.22;49.95